Terminal Aerodrome Forecast
Issued by NWS

Current Version | Previous Version | Text Only | Print | Product List | Glossary Off
Versions: 1 2 3 4 5 6 7 8 9 10 11 12 13 14 15 16 17 18 19

486
FTUS41 KPBZ 200957 AAA
TAFHLG
TAF AMD
KHLG 200957Z 2010/2106 10007KT P6SM -RA OVC070
     FM201100 13006KT 5SM -RA OVC040
     FM201400 15007KT 2SM -RA OVC008
     FM202200 21007KT P6SM SCT008 OVC010=

USA.gov is the U.S. government's official web portal to all federal, state and local government web resources and services.